Stockertown, Pennsylvania
Current Conditions -  °F | °C
As of 8:51 PM on Thursday 20 Nov 2014 (Local Time) from KABE Reporting Station
Clear Clear  
Wind Chill: 19°   Ceiling: Unl
Heat Index: 30°   Visibility: 10mi
Dew Point:   Wind: 16mph
Humidity: 38%   Direction: 290°WNW
Pressure: 30.02"   Gusts: 26mph
Location:  40.75°N, 75.26°W
Report Text: KABE 210151Z 29014G23KT 10SM CLR M01/M14 A3002 RMK AO2 PK WND 29030/0140 SLP169 T10111139
Loading
Personal Weather Stations






























Interactive Weather Map New forecast layout! Learn more

10-Day Weather Forecast

Advertisements
Track Severe Weather on mobile